Time;durP1;ratioP1;P1;durP2;ratioP2;P2;SDS_P1;SDS_P2;PMS_P1;PMS_P2;Temp;Humidity;BMP_temperature;BMP_pressure;BME280_temperature;BME280_humidity;BME280_pressure;Samples;Min_cycle;Max_cycle;Signal;HPM_P1;HPM_P2
2022/02/13 00:01:41;;;;;;;10.65;3.90;;;;;;;-4.05;92.81;96163.41;5000822;28;20042;-76
2022/02/13 00:04:07;;;;;;;12.25;4.43;;;;;;;-4.05;92.66;96158.25;4996712;28;20644;-76
2022/02/13 00:06:33;;;;;;;9.60;4.22;;;;;;;-4.21;94.19;96153.09;5003422;28;20038;-76
2022/02/13 00:08:58;;;;;;;15.45;4.25;;;;;;;-4.29;94.42;96150.56;4995220;28;20493;-77
2022/02/13 00:11:24;;;;;;;9.52;3.88;;;;;;;-4.28;93.86;96157.28;4999553;28;20046;-75
2022/02/13 00:13:50;;;;;;;12.93;4.18;;;;;;;-4.13;92.93;96150.53;4988792;28;20054;-77
2022/02/13 00:16:16;;;;;;;11.88;4.20;;;;;;;-4.26;93.18;96148.44;4989004;28;20050;-77
2022/02/13 00:18:43;;;;;;;8.35;3.63;;;;;;;-4.29;93.37;96147.97;4990480;28;20049;-78
2022/02/13 00:21:08;;;;;;;12.25;3.30;;;;;;;-4.22;92.96;96138.66;4989846;28;20167;-78
2022/02/13 00:23:35;;;;;;;9.00;3.92;;;;;;;-4.14;92.81;96143.78;5000647;28;20720;-77
2022/02/13 00:26:00;;;;;;;10.40;3.95;;;;;;;-4.15;92.38;96137.06;4990500;28;20038;-78
2022/02/13 00:28:26;;;;;;;9.88;3.03;;;;;;;-4.50;93.58;96144.09;4999739;28;20499;-79
2022/02/13 00:30:52;;;;;;;9.88;3.55;;;;;;;-4.33;92.82;96133.84;5023307;28;20041;-79
2022/02/13 00:33:18;;;;;;;7.35;3.30;;;;;;;-4.39;93.71;96130.16;4997198;28;20046;-79
2022/02/13 00:35:46;;;;;;;7.80;2.95;;;;;;;-4.36;93.73;96129.81;4997471;28;20045;-79
2022/02/13 00:38:12;;;;;;;7.38;3.35;;;;;;;-4.45;94.46;96129.00;4997638;28;20042;-79
2022/02/13 00:40:38;;;;;;;6.63;3.10;;;;;;;-4.27;93.09;96123.72;4997647;28;20050;-78
2022/02/13 00:43:04;;;;;;;7.88;3.30;;;;;;;-4.22;92.72;96121.47;5005008;28;20041;-79
2022/02/13 00:45:29;;;;;;;6.10;2.97;;;;;;;-4.37;93.30;96123.88;5010933;28;20066;-78
2022/02/13 00:47:55;;;;;;;12.20;3.58;;;;;;;-4.42;93.84;96115.84;5002070;28;20033;-79
2022/02/13 00:50:20;;;;;;;6.70;2.92;;;;;;;-4.59;94.46;96119.38;5016221;28;20030;-79
2022/02/13 00:52:46;;;;;;;7.68;3.10;;;;;;;-4.58;94.83;96115.84;4997046;28;20047;-79
2022/02/13 00:55:12;;;;;;;7.45;3.30;;;;;;;-4.67;94.98;96116.78;4996930;28;20100;-80
2022/02/13 00:57:37;;;;;;;7.93;3.40;;;;;;;-4.56;94.59;96116.47;4998746;28;20643;-79
2022/02/13 01:00:04;;;;;;;11.68;3.10;;;;;;;-4.67;95.85;96116.78;4999921;28;20066;-80
2022/02/13 01:02:30;;;;;;;8.80;3.00;;;;;;;-4.78;95.64;96116.13;5014359;28;20035;-80
2022/02/13 01:04:55;;;;;;;7.65;3.63;;;;;;;-4.62;95.62;96120.47;5004114;28;20517;-79
2022/02/13 01:07:21;;;;;;;6.07;3.00;;;;;;;-4.73;95.79;96119.00;5001586;28;20045;-79
2022/02/13 01:09:46;;;;;;;8.32;3.05;;;;;;;-4.87;96.48;96117.06;5008681;28;20046;-79
2022/02/13 01:12:12;;;;;;;9.90;3.28;;;;;;;-4.64;95.99;96111.31;5000122;28;20050;-79
2022/02/13 01:14:37;;;;;;;5.47;2.58;;;;;;;-4.57;95.49;96107.16;4998696;28;20045;-79
2022/02/13 01:17:04;;;;;;;6.72;2.88;;;;;;;-4.49;94.91;96114.88;4999071;28;20444;-79
2022/02/13 01:19:29;;;;;;;6.40;2.75;;;;;;;-4.59;95.82;96114.22;4998663;28;20054;-79
2022/02/13 01:21:55;;;;;;;11.80;3.22;;;;;;;-4.60;95.73;96113.41;4998573;28;20065;-79
2022/02/13 01:24:21;;;;;;;7.40;2.78;;;;;;;-4.77;96.21;96112.63;5010251;28;20038;-79
2022/02/13 01:26:46;;;;;;;7.80;2.90;;;;;;;-4.75;96.68;96110.69;5010911;28;20045;-79
2022/02/13 01:29:12;;;;;;;7.72;3.22;;;;;;;-4.66;95.94;96108.13;5000261;28;20058;-78
2022/02/13 01:31:39;;;;;;;6.03;2.67;;;;;;;-4.78;95.72;96111.00;4996957;28;20486;-79
2022/02/13 01:34:05;;;;;;;6.90;2.90;;;;;;;-5.00;96.47;96107.25;4997145;28;20074;-79
2022/02/13 01:36:31;;;;;;;6.38;2.80;;;;;;;-4.78;96.28;96105.88;4998646;28;20050;-79
2022/02/13 01:38:57;;;;;;;5.88;2.88;;;;;;;-4.62;94.44;96104.28;5004747;28;20038;-79
2022/02/13 01:41:23;;;;;;;10.55;2.95;;;;;;;-4.72;96.52;96110.34;5011784;28;20401;-79
2022/02/13 01:43:49;;;;;;;8.65;2.70;;;;;;;-4.79;95.72;96109.38;4994734;28;20050;-78
2022/02/13 01:46:14;;;;;;;7.97;2.92;;;;;;;-4.88;96.61;96105.22;5001740;28;20100;-78
2022/02/13 01:48:40;;;;;;;6.00;2.70;;;;;;;-4.72;95.88;96112.13;5000218;28;20050;-79
2022/02/13 01:51:07;;;;;;;5.45;2.38;;;;;;;-4.71;94.63;96101.69;4994667;28;20519;-78
2022/02/13 01:53:33;;;;;;;7.03;2.55;;;;;;;-4.85;94.64;96110.03;4995075;28;20528;-78
2022/02/13 01:56:00;;;;;;;7.68;2.72;;;;;;;-4.78;95.49;96100.72;4992461;28;20627;-78
2022/02/13 01:58:28;;;;;;;5.40;2.42;;;;;;;-4.76;94.13;96098.78;5001798;28;20569;-78
2022/02/13 02:00:54;;;;;;;7.70;2.70;;;;;;;-4.83;94.59;96105.53;4994862;28;20077;-78
2022/02/13 02:03:19;;;;;;;4.95;2.30;;;;;;;-4.79;94.46;96101.69;4994294;28;20039;-78
2022/02/13 02:05:45;;;;;;;4.10;2.20;;;;;;;-4.72;93.77;96089.81;4995175;28;20500;-78
2022/02/13 02:08:10;;;;;;;7.00;2.75;;;;;;;-4.67;92.67;96091.09;4997726;28;20462;-78
2022/02/13 02:10:36;;;;;;;4.50;2.30;;;;;;;-4.76;93.33;96098.78;5009137;28;20051;-78
2022/02/13 02:13:02;;;;;;;4.28;2.10;;;;;;;-5.01;93.86;96099.72;4994607;28;20422;-78
2022/02/13 02:15:28;;;;;;;3.63;2.05;;;;;;;-4.94;93.53;96095.56;5008535;28;20401;-78
2022/02/13 02:17:53;;;;;;;4.45;2.13;;;;;;;-4.91;93.82;96095.25;4995791;28;20471;-78
2022/02/13 02:20:19;;;;;;;8.70;2.20;;;;;;;-4.77;93.48;96091.25;4995681;28;20054;-78
2022/02/13 02:22:51;;;;;;;6.25;2.30;;;;;;;-4.79;92.42;96093.97;4991846;28;20116;-78
2022/02/13 02:25:16;;;;;;;4.72;1.92;;;;;;;-4.79;92.13;96091.41;4994192;28;20046;-78
2022/02/13 02:27:42;;;;;;;4.43;1.85;;;;;;;-4.73;91.71;96083.06;4992169;28;20117;-76
2022/02/13 02:30:08;;;;;;;4.53;2.08;;;;;;;-4.84;92.65;96091.09;4992042;28;20475;-75
2022/02/13 02:32:33;;;;;;;6.10;2.20;;;;;;;-4.90;93.78;96092.53;4996789;28;20046;-77
2022/02/13 02:35:03;;;;;;;5.32;2.17;;;;;;;-4.92;93.98;96088.50;5021556;28;20049;-77
2022/02/13 02:37:29;;;;;;;3.60;1.80;;;;;;;-4.81;92.42;96090.78;4993351;28;20046;-77
2022/02/13 02:39:54;;;;;;;3.78;1.70;;;;;;;-4.95;93.46;96083.69;4994860;28;20046;-77
2022/02/13 02:42:20;;;;;;;5.40;2.10;;;;;;;-4.95;93.31;96078.56;4998780;28;20049;-77
2022/02/13 02:44:46;;;;;;;6.07;2.10;;;;;;;-4.89;92.99;96080.50;4999990;28;20057;-77
2022/02/13 02:47:11;;;;;;;6.68;2.13;;;;;;;-4.98;93.05;96074.53;4995769;28;20043;-76
2022/02/13 02:49:37;;;;;;;7.55;2.00;;;;;;;-4.92;93.92;96080.81;4996128;28;20185;-77
2022/02/13 02:52:03;;;;;;;3.85;2.05;;;;;;;-5.02;93.61;96077.59;4996969;28;20049;-77
2022/02/13 02:54:28;;;;;;;7.75;2.20;;;;;;;-5.04;94.44;96070.03;5005077;28;20499;-77
2022/02/13 02:56:54;;;;;;;7.07;2.08;;;;;;;-5.00;93.97;96070.50;5001249;28;20042;-77
2022/02/13 02:59:19;;;;;;;3.90;1.92;;;;;;;-4.97;93.79;96065.06;5004463;28;20428;-77
2022/02/13 03:01:45;;;;;;;3.50;1.90;;;;;;;-4.98;94.09;96068.63;4998674;28;20034;-77
2022/02/13 03:04:10;;;;;;;6.13;2.28;;;;;;;-5.03;93.14;96078.53;5006713;28;20042;-77
2022/02/13 03:06:39;;;;;;;5.47;2.00;;;;;;;-5.07;94.09;96075.47;4997181;28;20196;-76
2022/02/13 03:09:05;;;;;;;6.65;2.45;;;;;;;-5.17;93.79;96075.63;4997464;28;20042;-77
2022/02/13 03:11:30;;;;;;;5.22;2.15;;;;;;;-5.14;93.95;96080.44;4997690;28;20600;-77
2022/02/13 03:13:56;;;;;;;4.53;1.77;;;;;;;-5.03;93.37;96076.75;4997416;28;20050;-77
2022/02/13 03:16:22;;;;;;;4.22;2.03;;;;;;;-5.03;93.25;96070.84;4997754;28;20084;-78
2022/02/13 03:18:47;;;;;;;5.03;2.13;;;;;;;-4.91;92.04;96082.41;5020876;28;20061;-77
2022/02/13 03:21:13;;;;;;;3.60;1.70;;;;;;;-5.08;91.83;96077.25;5006054;28;20051;-77
2022/02/13 03:23:39;;;;;;;4.15;2.08;;;;;;;-5.09;93.12;96083.31;5004653;28;20043;-77
2022/02/13 03:26:05;;;;;;;4.53;2.05;;;;;;;-4.98;91.83;96078.88;5002097;28;20050;-77
2022/02/13 03:28:30;;;;;;;3.38;1.65;;;;;;;-5.01;91.65;96084.31;4997644;28;20117;-77
2022/02/13 03:30:56;;;;;;;3.42;1.80;;;;;;;-5.11;92.89;96085.25;4997563;28;20069;-77
2022/02/13 03:33:22;;;;;;;4.70;1.60;;;;;;;-4.98;91.63;96089.16;4997949;28;20046;-77
2022/02/13 03:35:48;;;;;;;3.35;1.70;;;;;;;-5.00;91.77;96075.66;5012975;28;20035;-77
2022/02/13 03:38:14;;;;;;;3.30;1.65;;;;;;;-5.10;92.39;96066.34;5004556;28;20048;-77
2022/02/13 03:40:39;;;;;;;4.72;1.92;;;;;;;-5.13;92.52;96066.66;5015402;28;20045;-77
2022/02/13 03:43:06;;;;;;;5.50;1.90;;;;;;;-5.16;93.01;96066.94;5001976;28;20492;-77
2022/02/13 03:45:35;;;;;;;3.95;1.92;;;;;;;-5.26;93.98;96071.41;4998724;28;20046;-77
2022/02/13 03:48:02;;;;;;;3.33;1.73;;;;;;;-5.25;93.33;96073.03;4999929;28;20046;-76
2022/02/13 03:50:29;;;;;;;4.15;1.63;;;;;;;-5.18;93.02;96068.88;4998387;28;20062;-76
2022/02/13 03:52:54;;;;;;;3.15;1.80;;;;;;;-5.18;92.79;96068.88;5009285;28;20039;-77
2022/02/13 03:55:20;;;;;;;2.70;1.40;;;;;;;-5.10;91.81;96071.47;4998839;28;20417;-77
2022/02/13 03:57:46;;;;;;;3.45;1.40;;;;;;;-5.24;93.39;96069.50;5006944;28;20038;-77
2022/02/13 04:00:13;;;;;;;3.58;1.60;;;;;;;-5.23;92.23;96073.66;5013204;28;20052;-77
2022/02/13 04:02:39;;;;;;;9.20;1.70;;;;;;;-5.33;92.47;96076.38;4998597;28;20049;-76
2022/02/13 04:05:06;;;;;;;4.10;1.58;;;;;;;-5.33;94.42;96075.56;4997636;28;20038;-76
2022/02/13 04:07:31;;;;;;;4.38;1.52;;;;;;;-5.32;93.52;96074.63;5000102;28;20038;-77
2022/02/13 04:09:57;;;;;;;4.25;1.65;;;;;;;-5.20;92.28;96075.94;4999840;28;20041;-77
2022/02/13 04:12:24;;;;;;;2.75;1.55;;;;;;;-5.10;91.86;96071.47;5007133;28;20093;-77
2022/02/13 04:14:51;;;;;;;3.22;1.50;;;;;;;-5.11;91.77;96075.00;5025275;28;20042;-76
2022/02/13 04:17:17;;;;;;;3.42;1.60;;;;;;;-5.16;91.29;96071.28;5007152;28;20068;-77
2022/02/13 04:19:42;;;;;;;4.38;1.65;;;;;;;-5.24;91.50;96074.66;5013265;28;20050;-77
2022/02/13 04:22:08;;;;;;;2.88;1.60;;;;;;;-5.41;93.04;96079.72;5015651;28;20050;-77
2022/02/13 04:24:33;;;;;;;2.38;1.40;;;;;;;-5.20;91.71;96075.13;5000225;28;20373;-76
2022/02/13 04:26:59;;;;;;;3.15;1.30;;;;;;;-5.17;91.73;96070.50;5000755;28;20054;-76
2022/02/13 04:29:24;;;;;;;4.13;1.55;;;;;;;-5.14;90.35;96065.03;5000805;28;20065;-77
2022/02/13 04:31:50;;;;;;;2.72;1.50;;;;;;;-5.13;91.62;96082.06;5003569;28;20034;-76
2022/02/13 04:34:16;;;;;;;3.50;1.55;;;;;;;-5.14;91.07;96075.31;4999661;28;20106;-75
2022/02/13 04:36:43;;;;;;;3.25;1.23;;;;;;;-5.13;90.62;96079.50;5008723;28;20508;-76
2022/02/13 04:39:08;;;;;;;3.53;1.33;;;;;;;-5.18;90.56;96071.44;5015242;28;20049;-76
2022/02/13 04:41:34;;;;;;;4.35;1.60;;;;;;;-5.18;91.00;96068.09;5000568;28;20050;-76
2022/02/13 04:44:00;;;;;;;15.05;1.60;;;;;;;-5.32;91.41;96065.16;5009494;28;20040;-76
2022/02/13 04:46:26;;;;;;;5.15;1.50;;;;;;;-5.30;91.87;96059.84;5002472;28;20054;-76
2022/02/13 04:48:52;;;;;;;3.30;1.40;;;;;;;-5.32;91.81;96057.44;5002291;28;20042;-76
2022/02/13 04:51:17;;;;;;;3.03;1.52;;;;;;;-5.51;93.97;96058.53;5014168;28;20696;-77
2022/02/13 04:53:43;;;;;;;2.33;1.42;;;;;;;-5.32;92.66;96057.44;4997162;28;20038;-76
2022/02/13 04:56:08;;;;;;;3.40;1.60;;;;;;;-5.44;92.96;96054.38;5012477;28;20041;-76
2022/02/13 04:58:34;;;;;;;2.70;1.50;;;;;;;-5.46;93.41;96051.19;5005915;28;20038;-75
2022/02/13 05:01:00;;;;;;;2.30;1.40;;;;;;;-5.53;93.42;96045.06;4999327;28;20539;-77
2022/02/13 05:03:26;;;;;;;5.63;1.80;;;;;;;-5.60;92.18;96044.06;4987429;28;20093;-76
2022/02/13 05:05:53;;;;;;;3.00;1.30;;;;;;;-5.64;93.57;96037.66;5012222;28;20034;-76
2022/02/13 05:08:19;;;;;;;3.22;1.58;;;;;;;-5.75;94.20;96042.09;5006245;28;20046;-75
2022/02/13 05:10:45;;;;;;;2.50;1.40;;;;;;;-5.72;94.21;96035.03;5006432;28;20038;-76
2022/02/13 05:13:11;;;;;;;2.40;1.58;;;;;;;-5.80;92.66;96044.31;5005996;28;20045;-76
2022/02/13 05:15:37;;;;;;;5.38;1.52;;;;;;;-5.63;93.41;96040.06;5001887;28;20042;-75
2022/02/13 05:18:03;;;;;;;1.33;1.08;;;;;;;-5.61;93.43;96042.47;4999215;28;20070;-76
2022/02/13 05:20:28;;;;;;;2.50;1.58;;;;;;;-5.57;93.35;96038.63;5001971;28;20042;-76
2022/02/13 05:22:54;;;;;;;4.38;1.40;;;;;;;-5.69;93.42;96029.59;5005740;28;20093;-75
2022/02/13 05:25:19;;;;;;;3.92;1.60;;;;;;;-5.64;93.29;96027.38;4987466;28;20523;-76
2022/02/13 05:27:46;;;;;;;3.05;1.30;;;;;;;-5.52;93.59;96030.47;5009019;28;20033;-76
2022/02/13 05:30:12;;;;;;;4.22;1.42;;;;;;;-5.49;92.69;96035.28;5029029;28;20064;-76
2022/02/13 05:32:38;;;;;;;3.03;1.65;;;;;;;-5.68;92.60;96033.78;5008946;28;20046;-76
2022/02/13 05:35:04;;;;;;;5.03;1.60;;;;;;;-5.59;93.57;96033.66;5006362;28;20042;-76
2022/02/13 05:37:33;;;;;;;4.18;1.73;;;;;;;-5.57;93.96;96023.25;5005279;28;20043;-76
2022/02/13 05:39:58;;;;;;;3.90;1.75;;;;;;;-5.58;93.87;96024.19;5006021;28;20076;-76
2022/02/13 05:42:24;;;;;;;3.35;1.60;;;;;;;-5.61;93.42;96022.75;5009512;28;20068;-78
2022/02/13 05:44:51;;;;;;;4.03;1.33;;;;;;;-5.52;93.10;96018.44;5027407;28;20042;-76
2022/02/13 05:47:17;;;;;;;2.78;1.42;;;;;;;-5.52;93.12;96021.00;5001517;28;20065;-76
2022/02/13 05:49:43;;;;;;;3.42;1.65;;;;;;;-5.67;92.84;96020.00;5015634;28;20500;-76
2022/02/13 05:52:09;;;;;;;4.20;1.33;;;;;;;-5.65;93.56;96020.66;5025086;28;20241;-76
2022/02/13 05:54:35;;;;;;;2.45;1.38;;;;;;;-5.63;92.88;96019.53;5007178;28;20050;-77
2022/02/13 05:57:01;;;;;;;4.85;1.40;;;;;;;-5.68;92.57;96015.84;5016183;28;20048;-76
2022/02/13 05:59:26;;;;;;;2.95;1.40;;;;;;;-5.67;93.32;96022.56;5005486;28;20042;-77
2022/02/13 06:01:53;;;;;;;2.38;1.50;;;;;;;-5.58;92.81;96017.28;5008650;28;20034;-76
2022/02/13 06:04:20;;;;;;;2.28;1.50;;;;;;;-5.64;93.25;96019.69;5024899;28;20069;-76
2022/02/13 06:06:51;;;;;;;4.95;1.40;;;;;;;-5.64;92.74;96022.25;5000502;28;20042;-76
2022/02/13 06:09:18;;;;;;;2.40;1.40;;;;;;;-5.59;92.40;96030.28;4991651;28;20058;-76
2022/02/13 06:11:44;;;;;;;4.70;1.50;;;;;;;-5.52;91.34;96026.13;4991012;28;20121;-75
2022/02/13 06:14:09;;;;;;;3.90;1.40;;;;;;;-5.48;90.40;96027.44;4992276;28;20049;-76
2022/02/13 06:16:35;;;;;;;4.07;1.55;;;;;;;-5.58;91.56;96021.63;5000937;28;20061;-76
2022/02/13 06:19:01;;;;;;;3.42;1.50;;;;;;;-5.58;91.91;96021.63;5001500;28;20039;-76
2022/02/13 06:21:26;;;;;;;3.45;1.42;;;;;;;-5.63;92.38;96026.41;5001794;28;20475;-75
2022/02/13 06:23:52;;;;;;;2.78;1.40;;;;;;;-5.77;91.16;96031.19;4994552;28;20086;-76
2022/02/13 06:26:17;;;;;;;2.72;1.58;;;;;;;-5.83;92.22;96029.22;5009628;28;20582;-76
2022/02/13 06:28:43;;;;;;;1.67;1.15;;;;;;;-5.82;91.81;96032.59;4994755;28;20050;-76
2022/02/13 06:31:09;;;;;;;4.20;1.50;;;;;;;-5.73;90.90;96039.38;4991549;28;20117;-75
2022/02/13 06:33:34;;;;;;;3.13;1.35;;;;;;;-5.66;92.15;96035.25;4991476;28;20112;-77
2022/02/13 06:36:00;;;;;;;2.00;1.35;;;;;;;-5.59;92.19;96035.41;4996689;28;20065;-75
2022/02/13 06:38:26;;;;;;;3.90;1.67;;;;;;;-5.49;91.45;96030.94;5005968;28;20042;-74
2022/02/13 06:40:51;;;;;;;5.93;1.50;;;;;;;-5.38;89.54;96036.75;4996816;28;20047;-76
2022/02/13 06:43:17;;;;;;;3.17;1.45;;;;;;;-5.47;91.07;96036.72;5001301;28;20566;-77
2022/02/13 06:45:42;;;;;;;4.40;1.58;;;;;;;-5.33;89.68;96029.38;4999377;28;20050;-77
2022/02/13 06:48:09;;;;;;;2.40;1.25;;;;;;;-5.26;89.19;96030.38;4992901;28;20045;-81
2022/02/13 06:50:35;;;;;;;5.05;1.23;;;;;;;-5.29;89.01;96026.34;4998418;28;20125;-75
2022/02/13 06:53:04;;;;;;;2.47;1.45;;;;;;;-5.34;89.54;96025.22;4999283;28;20054;-76
2022/02/13 06:55:30;;;;;;;3.45;1.42;;;;;;;-5.43;91.13;96032.91;4999567;28;20074;-80
2022/02/13 06:57:55;;;;;;;4.07;1.40;;;;;;;-5.50;90.60;96044.75;4998237;28;20038;-77
2022/02/13 07:00:21;;;;;;;2.67;1.50;;;;;;;-5.52;89.84;96041.50;4995482;28;20431;-77
2022/02/13 07:02:48;;;;;;;3.38;1.63;;;;;;;-5.48;89.86;96050.50;4993504;28;20046;-78
2022/02/13 07:05:14;;;;;;;2.47;1.23;;;;;;;-5.34;90.43;96048.28;4991733;28;20043;-77
2022/02/13 07:07:40;;;;;;;2.40;1.10;;;;;;;-5.15;89.32;96042.91;5003254;28;20496;-78
2022/02/13 07:10:08;;;;;;;4.22;1.77;;;;;;;-5.12;89.23;96036.66;4992852;28;20054;-77
2022/02/13 07:12:34;;;;;;;3.08;1.38;;;;;;;-5.14;90.34;96034.25;4993585;28;20050;-78
2022/02/13 07:14:59;;;;;;;3.17;1.60;;;;;;;-5.19;89.35;96031.34;5014316;28;20381;-76
2022/02/13 07:17:26;;;;;;;5.15;1.50;;;;;;;-5.25;90.67;96043.03;4991176;28;20054;-77
2022/02/13 07:19:51;;;;;;;2.42;1.17;;;;;;;-5.23;91.53;96030.03;5000691;28;20616;-80
2022/02/13 07:22:17;;;;;;;4.68;1.33;;;;;;;-5.19;91.49;96033.91;5008134;28;20038;-76
2022/02/13 07:24:43;;;;;;;3.65;1.63;;;;;;;-5.12;89.86;96029.75;4990705;28;20042;-78
2022/02/13 07:27:08;;;;;;;4.32;2.03;;;;;;;-4.97;91.08;96029.94;4992233;28;20421;-78
2022/02/13 07:29:35;;;;;;;11.15;3.13;;;;;;;-4.81;90.65;96023.19;5008824;28;20058;-80
2022/02/13 07:32:01;;;;;;;10.07;2.90;;;;;;;-4.91;90.27;96024.16;4993383;28;20129;-78
2022/02/13 07:34:26;;;;;;;10.25;3.38;;;;;;;-4.91;90.65;96033.66;5001862;28;20081;-79
2022/02/13 07:36:55;;;;;;;11.85;3.92;;;;;;;-4.81;91.50;96029.16;4992563;28;20042;-79
2022/02/13 07:39:21;;;;;;;9.20;3.50;;;;;;;-4.74;92.18;96035.25;5008617;28;20057;-79
2022/02/13 07:41:47;;;;;;;7.45;3.63;;;;;;;-4.73;90.80;96031.69;5001539;28;20512;-78
2022/02/13 07:44:13;;;;;;;7.93;3.10;;;;;;;-4.73;90.01;96025.78;4993811;28;20098;-78
2022/02/13 07:46:38;;;;;;;10.38;3.33;;;;;;;-4.52;91.05;96028.66;4993429;28;20045;-79
2022/02/13 07:49:05;;;;;;;9.25;3.08;;;;;;;-4.44;91.39;96029.59;4994968;28;20044;-79
2022/02/13 07:51:32;;;;;;;9.88;2.83;;;;;;;-4.44;91.30;96025.28;5000921;28;20038;-80
2022/02/13 07:53:58;;;;;;;8.98;2.85;;;;;;;-4.39;91.92;96017.88;4991109;28;20064;-77
2022/02/13 07:56:24;;;;;;;12.82;4.60;;;;;;;-4.16;92.14;96017.22;4993002;28;20054;-80
2022/02/13 07:58:50;;;;;;;9.55;3.55;;;;;;;-4.18;91.16;96013.97;5000915;28;20045;-79
2022/02/13 08:01:17;;;;;;;10.88;4.07;;;;;;;-4.14;91.34;96015.25;4994655;28;20047;-80
2022/02/13 08:03:43;;;;;;;18.30;4.93;;;;;;;-4.12;91.37;96013.34;4989852;28;20062;-78
2022/02/13 08:06:09;;;;;;;13.90;4.95;;;;;;;-3.79;91.93;96002.94;4995164;28;20046;-81
2022/02/13 08:08:37;;;;;;;8.85;3.38;;;;;;;-3.34;86.03;96001.44;4995714;28;20531;-81
2022/02/13 08:11:06;;;;;;;7.90;2.75;;;;;;;-2.59;79.07;95988.03;4975069;28;20493;-76
2022/02/13 08:13:33;;;;;;;8.32;2.78;;;;;;;-2.76;81.18;95993.31;5019230;28;20049;-78
2022/02/13 08:15:58;;;;;;;4.65;1.98;;;;;;;-2.75;82.33;95989.78;4989785;28;20042;-83
2022/02/13 08:18:25;;;;;;;3.28;1.73;;;;;;;-2.14;75.14;95991.47;4996064;28;20080;-80
2022/02/13 08:20:54;;;;;;;15.25;5.15;;;;;;;-1.29;68.12;95982.38;4993657;28;20038;-79
2022/02/13 08:23:20;;;;;;;14.43;4.65;;;;;;;-1.26;72.90;95984.59;4988865;28;20062;-80
2022/02/13 08:25:48;;;;;;;7.45;3.42;;;;;;;-1.55;74.75;95979.50;4987060;28;20768;-80
2022/02/13 08:28:14;;;;;;;6.18;1.80;;;;;;;-0.73;67.14;95978.34;4983804;28;20101;-79
2022/02/13 08:30:43;;;;;;;9.80;2.10;;;;;;;0.14;58.32;95979.72;5001738;28;20121;-82
2022/02/13 08:33:08;;;;;;;4.40;1.95;;;;;;;0.45;58.55;95970.66;4981916;28;20417;-80
2022/02/13 08:35:34;;;;;;;3.28;1.55;;;;;;;0.33;61.26;95972.19;4987765;28;20042;-79
2022/02/13 08:38:00;;;;;;;4.10;1.70;;;;;;;0.60;58.51;95977.47;5002272;28;20085;-77
2022/02/13 08:40:27;;;;;;;1.80;1.40;;;;;;;0.71;55.42;95969.16;4992503;28;20053;-78
2022/02/13 08:42:53;;;;;;;2.72;1.50;;;;;;;1.17;53.94;95963.25;4992302;28;20043;-78
2022/02/13 08:45:19;;;;;;;12.40;1.92;;;;;;;1.25;52.36;95964.03;4992058;28;20049;-79
2022/02/13 08:47:45;;;;;;;3.55;1.90;;;;;;;1.06;58.42;95958.63;4994307;28;20050;-79
2022/02/13 08:50:10;;;;;;;7.72;2.45;;;;;;;1.59;52.49;95954.47;4991367;28;20042;-77
2022/02/13 08:52:36;;;;;;;5.35;2.33;;;;;;;1.58;52.64;95952.88;4992790;28;20505;-76
2022/02/13 08:55:02;;;;;;;6.65;2.55;;;;;;;1.83;51.24;95946.03;4985600;28;20066;-77
2022/02/13 08:57:28;;;;;;;6.40;1.80;;;;;;;2.18;48.07;95952.72;4992953;28;20050;-78
2022/02/13 08:59:53;;;;;;;5.13;1.50;;;;;;;2.34;47.39;95941.09;4993111;28;20061;-76
2022/02/13 09:02:19;;;;;;;5.50;1.60;;;;;;;2.48;48.66;95952.22;4991419;28;20519;-74
2022/02/13 09:04:45;;;;;;;5.35;1.80;;;;;;;2.34;50.23;95946.28;4983176;28;20122;-74
2022/02/13 09:07:10;;;;;;;7.30;2.03;;;;;;;2.21;50.01;95947.94;4995034;28;20050;-77
2022/02/13 09:09:36;;;;;;;10.88;3.40;;;;;;;2.55;48.09;95953.00;4986609;28;20050;-78
2022/02/13 09:12:02;;;;;;;13.05;5.05;;;;;;;2.44;51.57;95941.44;5006984;28;20042;-77
2022/02/13 09:14:28;;;;;;;8.32;2.50;;;;;;;2.66;46.37;95943.72;4990774;28;20038;-75
2022/02/13 09:16:53;;;;;;;4.00;1.70;;;;;;;2.94;46.89;95931.19;4990148;28;20097;-74
2022/02/13 09:19:20;;;;;;;5.93;1.80;;;;;;;3.00;46.63;95933.94;4991181;28;20046;-75
2022/02/13 09:21:52;;;;;;;13.15;3.08;;;;;;;3.04;48.82;95925.50;4990136;28;20081;-75
2022/02/13 09:24:22;;;;;;;12.85;4.18;;;;;;;3.11;48.72;95930.66;4988595;28;20508;-74
2022/02/13 09:26:48;;;;;;;15.82;4.85;;;;;;;3.09;48.74;95927.50;4991831;28;20042;-73
2022/02/13 09:29:13;;;;;;;6.13;2.08;;;;;;;3.11;47.80;95926.25;4991701;28;20108;-74
2022/02/13 09:31:39;;;;;;;10.35;2.83;;;;;;;3.40;44.87;95918.03;4992274;28;20042;-74
2022/02/13 09:34:05;;;;;;;7.53;2.88;;;;;;;3.33;48.80;95922.50;4991844;28;20042;-74
2022/02/13 09:36:31;;;;;;;7.53;2.50;;;;;;;3.43;47.25;95917.59;5006178;28;20060;-74
2022/02/13 09:38:56;;;;;;;6.45;2.42;;;;;;;3.46;48.65;95907.56;5011266;28;20042;-73
2022/02/13 09:41:22;;;;;;;7.70;2.40;;;;;;;3.58;46.27;95909.47;5003864;28;20058;-71
2022/02/13 09:43:48;;;;;;;5.30;3.05;;;;;;;3.82;48.43;95900.00;5009494;28;21124;-71
2022/02/13 09:46:16;;;;;;;3.20;1.60;;;;;;;3.80;49.27;95907.25;5001335;28;20042;-72
2022/02/13 09:48:42;;;;;;;3.63;1.60;;;;;;;3.98;47.84;95899.44;5000742;28;20469;-69
2022/02/13 09:51:09;;;;;;;5.00;1.98;;;;;;;3.85;50.64;95899.59;5009007;28;20042;-71
2022/02/13 09:53:35;;;;;;;6.07;1.80;;;;;;;3.66;51.30;95895.38;5015849;28;20034;-72
2022/02/13 09:56:05;;;;;;;5.28;2.15;;;;;;;4.17;46.55;95891.63;5016886;28;20031;-75
2022/02/13 09:58:31;;;;;;;19.73;4.88;;;;;;;4.87;46.49;95890.28;5010244;28;20042;-74
2022/02/13 10:00:59;;;;;;;8.55;2.75;;;;;;;5.25;47.01;95880.47;5013161;28;20053;-75
2022/02/13 10:03:27;;;;;;;4.20;2.20;;;;;;;5.66;42.97;95881.38;4999383;28;20048;-75
2022/02/13 10:05:57;;;;;;;14.18;5.22;;;;;;;6.49;41.93;95878.59;5004696;28;20058;-75
2022/02/13 10:08:35;;;;;;;7.47;2.90;;;;;;;7.05;42.01;95874.34;4999099;28;20451;-74
2022/02/13 10:11:33;;;;;;;6.88;2.35;;;;;;;7.75;39.95;95864.31;5001278;28;20523;-74
2022/02/13 10:14:09;;;;;;;7.85;2.40;;;;;;;8.84;37.85;95866.31;4991808;28;20034;-74
2022/02/13 10:16:36;;;;;;;5.82;2.45;;;;;;;10.05;37.13;95865.78;4988956;28;20049;-76
2022/02/13 10:19:07;;;;;;;7.50;2.40;;;;;;;11.08;34.91;95855.53;4991737;28;20126;-75
2022/02/13 10:21:52;;;;;;;4.07;2.40;;;;;;;11.73;33.96;95860.97;5000931;28;20058;-75
2022/02/13 10:24:33;;;;;;;6.18;2.40;;;;;;;12.17;31.85;95854.25;5002217;28;20435;-74
2022/02/13 10:27:07;;;;;;;10.10;2.85;;;;;;;12.74;32.13;95856.59;4999690;28;20050;-75
2022/02/13 10:29:37;;;;;;;6.75;2.70;;;;;;;12.83;33.57;95849.69;4999990;28;20101;-75
2022/02/13 10:32:18;;;;;;;7.53;3.10;;;;;;;13.62;31.33;95828.41;4992414;28;20045;-74
2022/02/13 10:35:03;;;;;;;6.20;3.08;;;;;;;12.61;31.15;95848.22;4997025;28;20047;-74
2022/02/13 10:37:54;;;;;;;8.27;2.72;;;;;;;13.03;30.96;95826.78;4993337;28;20137;-75
2022/02/13 10:40:23;;;;;;;4.30;2.30;;;;;;;12.27;32.48;95827.81;5004364;28;20046;-75
2022/02/13 10:42:49;;;;;;;6.75;2.63;;;;;;;12.78;32.15;95820.66;4988277;28;20161;-76
2022/02/13 10:45:21;;;;;;;4.40;2.45;;;;;;;12.35;31.90;95812.47;4986175;28;20512;-73
2022/02/13 10:47:48;;;;;;;6.45;2.70;;;;;;;12.97;32.40;95807.56;4997928;28;20420;-76
2022/02/13 10:50:17;;;;;;;6.38;2.63;;;;;;;13.37;32.34;95796.94;4991663;28;20042;-75
2022/02/13 10:52:46;;;;;;;7.15;2.40;;;;;;;13.83;30.97;95796.44;4991604;28;20500;-75
2022/02/13 10:55:12;;;;;;;8.07;2.90;;;;;;;15.37;29.72;95794.22;4990529;28;20045;-74
2022/02/13 10:57:39;;;;;;;11.18;3.67;;;;;;;15.15;29.95;95786.13;4989442;28;20046;-75
2022/02/13 11:00:07;;;;;;;4.93;2.70;;;;;;;15.09;30.48;95771.38;4990364;28;20136;-75
2022/02/13 11:02:34;;;;;;;10.55;3.35;;;;;;;15.67;28.44;95768.19;4990486;28;20042;-75
2022/02/13 11:05:02;;;;;;;6.20;2.55;;;;;;;16.13;27.28;95763.84;4996887;28;20046;-74
2022/02/13 11:07:29;;;;;;;10.95;3.50;;;;;;;15.46;28.99;95757.19;4988095;28;20038;-73
2022/02/13 11:09:56;;;;;;;10.23;3.45;;;;;;;15.75;28.46;95751.56;4991044;28;20043;-73
2022/02/13 11:12:22;;;;;;;7.45;3.17;;;;;;;15.76;29.14;95753.16;4990534;28;20078;-74
2022/02/13 11:14:47;;;;;;;11.32;3.78;;;;;;;16.21;28.21;95751.75;4988164;28;20046;-72
2022/02/13 11:17:33;;;;;;;8.60;3.03;;;;;;;16.48;28.78;95745.56;4990600;28;20054;-73
2022/02/13 11:19:58;;;;;;;9.40;2.97;;;;;;;16.58;28.93;95736.56;4988761;28;20113;-72
2022/02/13 11:22:36;;;;;;;8.55;3.40;;;;;;;17.36;27.68;95717.63;4989972;28;20515;-73
2022/02/13 11:25:04;;;;;;;5.35;2.80;;;;;;;17.67;26.98;95719.44;5004737;28;20039;-73
2022/02/13 11:27:57;;;;;;;12.45;3.30;;;;;;;17.07;27.33;95718.91;4985194;28;20109;-74
2022/02/13 11:30:47;;;;;;;5.70;2.90;;;;;;;17.16;29.77;95704.88;4988249;28;20038;-73
2022/02/13 11:33:31;;;;;;;7.82;3.40;;;;;;;17.35;27.80;95705.41;4989881;28;20117;-72